sensor_id;sensor_type;location;lat;lon;timestamp;temperature;humidity
44773;DHT22;30492;52.088;5.122;2022-08-19T00:00:25;21.50;99.90
44773;DHT22;30492;52.088;5.122;2022-08-19T00:04:05;21.50;99.90
44773;DHT22;30492;52.088;5.122;2022-08-19T00:07:45;21.50;99.90
44773;DHT22;30492;52.088;5.122;2022-08-19T00:11:24;21.40;99.90
44773;DHT22;30492;52.088;5.122;2022-08-19T00:15:04;21.40;99.90
44773;DHT22;30492;52.088;5.122;2022-08-19T00:18:43;21.30;99.90
44773;DHT22;30492;52.088;5.122;2022-08-19T00:22:21;21.40;99.90
44773;DHT22;30492;52.088;5.122;2022-08-19T00:26:00;21.40;99.90
44773;DHT22;30492;52.088;5.122;2022-08-19T00:29:41;21.30;99.90
44773;DHT22;30492;52.088;5.122;2022-08-19T00:33:21;21.30;99.90
44773;DHT22;30492;52.088;5.122;2022-08-19T00:36:59;21.20;99.90
44773;DHT22;30492;52.088;5.122;2022-08-19T00:40:39;21.20;99.90
44773;DHT22;30492;52.088;5.122;2022-08-19T00:44:20;21.10;99.90
44773;DHT22;30492;52.088;5.122;2022-08-19T00:48:01;21.10;99.90
44773;DHT22;30492;52.088;5.122;2022-08-19T00:51:41;21.10;99.90
44773;DHT22;30492;52.088;5.122;2022-08-19T00:55:24;21.10;99.90
44773;DHT22;30492;52.088;5.122;2022-08-19T00:59:04;21.10;99.90
44773;DHT22;30492;52.088;5.122;2022-08-19T01:02:43;21.10;99.90
44773;DHT22;30492;52.088;5.122;2022-08-19T01:06:25;21.10;99.90
44773;DHT22;30492;52.088;5.122;2022-08-19T01:10:07;21.10;99.90
44773;DHT22;30492;52.088;5.122;2022-08-19T01:13:47;21.10;99.90
44773;DHT22;30492;52.088;5.122;2022-08-19T01:17:27;21.10;99.90
44773;DHT22;30492;52.088;5.122;2022-08-19T01:21:12;21.00;99.90
44773;DHT22;30492;52.088;5.122;2022-08-19T01:24:58;21.00;99.90
44773;DHT22;30492;52.088;5.122;2022-08-19T01:28:36;20.90;99.90
44773;DHT22;30492;52.088;5.122;2022-08-19T01:32:18;20.90;99.90
44773;DHT22;30492;52.088;5.122;2022-08-19T01:36:05;20.90;99.90
44773;DHT22;30492;52.088;5.122;2022-08-19T01:39:44;20.90;99.90
44773;DHT22;30492;52.088;5.122;2022-08-19T01:43:24;20.80;99.90
44773;DHT22;30492;52.088;5.122;2022-08-19T01:47:03;20.80;99.90
44773;DHT22;30492;52.088;5.122;2022-08-19T01:50:22;20.80;99.90
44773;DHT22;30492;52.088;5.122;2022-08-19T01:54:02;20.80;99.90
44773;DHT22;30492;52.088;5.122;2022-08-19T01:57:45;20.70;99.90
44773;DHT22;30492;52.088;5.122;2022-08-19T02:01:30;20.70;99.90
44773;DHT22;30492;52.088;5.122;2022-08-19T02:05:09;20.60;99.90
44773;DHT22;30492;52.088;5.122;2022-08-19T02:08:49;20.60;99.90
44773;DHT22;30492;52.088;5.122;2022-08-19T02:12:27;20.60;99.90
44773;DHT22;30492;52.088;5.122;2022-08-19T02:16:05;20.60;99.90
44773;DHT22;30492;52.088;5.122;2022-08-19T02:19:24;20.60;99.90
44773;DHT22;30492;52.088;5.122;2022-08-19T02:23:04;20.60;99.90
44773;DHT22;30492;52.088;5.122;2022-08-19T02:26:43;20.60;99.90
44773;DHT22;30492;52.088;5.122;2022-08-19T02:30:22;20.50;99.90
44773;DHT22;30492;52.088;5.122;2022-08-19T02:34:01;20.50;99.90
44773;DHT22;30492;52.088;5.122;2022-08-19T02:37:42;20.50;99.90
44773;DHT22;30492;52.088;5.122;2022-08-19T02:41:21;20.50;99.90
44773;DHT22;30492;52.088;5.122;2022-08-19T02:45:02;20.50;99.90
44773;DHT22;30492;52.088;5.122;2022-08-19T02:48:42;20.50;99.90
44773;DHT22;30492;52.088;5.122;2022-08-19T02:52:20;20.50;99.90
44773;DHT22;30492;52.088;5.122;2022-08-19T02:55:46;20.50;99.90
44773;DHT22;30492;52.088;5.122;2022-08-19T02:59:26;20.50;99.90
44773;DHT22;30492;52.088;5.122;2022-08-19T03:03:08;20.50;99.90
44773;DHT22;30492;52.088;5.122;2022-08-19T03:06:47;20.40;99.90
44773;DHT22;30492;52.088;5.122;2022-08-19T03:10:26;20.40;99.90
44773;DHT22;30492;52.088;5.122;2022-08-19T03:14:06;20.40;99.90
44773;DHT22;30492;52.088;5.122;2022-08-19T03:17:46;20.40;99.90
44773;DHT22;30492;52.088;5.122;2022-08-19T03:21:26;20.40;99.90
44773;DHT22;30492;52.088;5.122;2022-08-19T03:25:06;20.40;99.90
44773;DHT22;30492;52.088;5.122;2022-08-19T03:28:46;20.40;99.90
44773;DHT22;30492;52.088;5.122;2022-08-19T03:32:25;20.40;99.90
44773;DHT22;30492;52.088;5.122;2022-08-19T03:36:06;20.40;99.90
44773;DHT22;30492;52.088;5.122;2022-08-19T03:39:46;20.30;99.90
44773;DHT22;30492;52.088;5.122;2022-08-19T03:43:24;20.30;99.90
44773;DHT22;30492;52.088;5.122;2022-08-19T03:47:05;20.20;99.90
44773;DHT22;30492;52.088;5.122;2022-08-19T03:50:48;20.20;99.90
44773;DHT22;30492;52.088;5.122;2022-08-19T03:54:27;20.20;99.90
44773;DHT22;30492;52.088;5.122;2022-08-19T03:57:46;20.10;99.90
44773;DHT22;30492;52.088;5.122;2022-08-19T04:01:27;20.10;99.90
44773;DHT22;30492;52.088;5.122;2022-08-19T04:05:06;20.10;99.90
44773;DHT22;30492;52.088;5.122;2022-08-19T04:08:50;20.10;99.90
44773;DHT22;30492;52.088;5.122;2022-08-19T04:12:30;20.10;99.90
44773;DHT22;30492;52.088;5.122;2022-08-19T04:16:09;20.10;99.90
44773;DHT22;30492;52.088;5.122;2022-08-19T04:19:49;20.10;99.90
44773;DHT22;30492;52.088;5.122;2022-08-19T04:23:28;20.00;99.90
44773;DHT22;30492;52.088;5.122;2022-08-19T04:27:08;20.00;99.90
44773;DHT22;30492;52.088;5.122;2022-08-19T04:30:49;19.90;99.90
44773;DHT22;30492;52.088;5.122;2022-08-19T04:34:29;19.90;99.90
44773;DHT22;30492;52.088;5.122;2022-08-19T04:38:08;19.90;99.90
44773;DHT22;30492;52.088;5.122;2022-08-19T04:41:47;19.80;99.90
44773;DHT22;30492;52.088;5.122;2022-08-19T04:45:46;19.90;99.90
44773;DHT22;30492;52.088;5.122;2022-08-19T04:49:26;19.90;99.90
44773;DHT22;30492;52.088;5.122;2022-08-19T04:53:06;19.80;99.90
44773;DHT22;30492;52.088;5.122;2022-08-19T04:56:45;19.80;99.90
44773;DHT22;30492;52.088;5.122;2022-08-19T05:00:23;19.70;99.90
44773;DHT22;30492;52.088;5.122;2022-08-19T05:04:05;19.80;99.90
44773;DHT22;30492;52.088;5.122;2022-08-19T05:07:43;19.80;99.90
44773;DHT22;30492;52.088;5.122;2022-08-19T05:11:24;19.80;99.90
44773;DHT22;30492;52.088;5.122;2022-08-19T05:15:06;19.80;99.90
44773;DHT22;30492;52.088;5.122;2022-08-19T05:18:45;19.80;99.90
44773;DHT22;30492;52.088;5.122;2022-08-19T05:22:45;19.90;99.90
44773;DHT22;30492;52.088;5.122;2022-08-19T05:26:04;19.90;99.90
44773;DHT22;30492;52.088;5.122;2022-08-19T05:29:44;19.90;99.90
44773;DHT22;30492;52.088;5.122;2022-08-19T05:33:23;19.90;99.90
44773;DHT22;30492;52.088;5.122;2022-08-19T05:37:03;20.00;99.90
44773;DHT22;30492;52.088;5.122;2022-08-19T05:40:43;20.00;99.90
44773;DHT22;30492;52.088;5.122;2022-08-19T05:44:23;19.90;99.90
44773;DHT22;30492;52.088;5.122;2022-08-19T05:48:01;19.90;99.90
44773;DHT22;30492;52.088;5.122;2022-08-19T05:51:42;19.90;99.90
44773;DHT22;30492;52.088;5.122;2022-08-19T05:55:21;19.90;99.90
44773;DHT22;30492;52.088;5.122;2022-08-19T05:59:10;19.90;99.90
44773;DHT22;30492;52.088;5.122;2022-08-19T06:02:52;19.80;99.90
44773;DHT22;30492;52.088;5.122;2022-08-19T06:06:33;19.90;99.90
44773;DHT22;30492;52.088;5.122;2022-08-19T06:10:14;19.90;99.90
44773;DHT22;30492;52.088;5.122;2022-08-19T06:13:53;19.90;99.90
44773;DHT22;30492;52.088;5.122;2022-08-19T06:17:32;19.90;99.90
44773;DHT22;30492;52.088;5.122;2022-08-19T06:21:12;19.90;99.90
44773;DHT22;30492;52.088;5.122;2022-08-19T06:24:51;19.90;99.90
44773;DHT22;30492;52.088;5.122;2022-08-19T06:28:33;19.80;99.90
44773;DHT22;30492;52.088;5.122;2022-08-19T06:32:15;19.90;99.90
44773;DHT22;30492;52.088;5.122;2022-08-19T06:35:55;19.80;99.90
44773;DHT22;30492;52.088;5.122;2022-08-19T06:39:36;19.80;99.90
44773;DHT22;30492;52.088;5.122;2022-08-19T06:43:16;19.80;99.90
44773;DHT22;30492;52.088;5.122;2022-08-19T06:46:55;19.80;99.90
44773;DHT22;30492;52.088;5.122;2022-08-19T06:50:33;19.80;99.90
44773;DHT22;30492;52.088;5.122;2022-08-19T06:54:13;19.80;99.90
44773;DHT22;30492;52.088;5.122;2022-08-19T06:57:57;19.70;99.90
44773;DHT22;30492;52.088;5.122;2022-08-19T07:01:39;19.80;99.90
44773;DHT22;30492;52.088;5.122;2022-08-19T07:05:19;19.70;99.90
44773;DHT22;30492;52.088;5.122;2022-08-19T07:08:58;19.70;99.90
44773;DHT22;30492;52.088;5.122;2022-08-19T07:12:38;19.70;99.90
44773;DHT22;30492;52.088;5.122;2022-08-19T07:16:18;19.80;99.90
44773;DHT22;30492;52.088;5.122;2022-08-19T07:19:58;19.80;99.90
44773;DHT22;30492;52.088;5.122;2022-08-19T07:23:38;19.80;99.90
44773;DHT22;30492;52.088;5.122;2022-08-19T07:27:18;19.90;99.90
44773;DHT22;30492;52.088;5.122;2022-08-19T07:30:38;19.90;99.90
44773;DHT22;30492;52.088;5.122;2022-08-19T07:34:17;19.90;99.90
44773;DHT22;30492;52.088;5.122;2022-08-19T07:38:03;19.90;99.90
44773;DHT22;30492;52.088;5.122;2022-08-19T07:41:42;19.90;99.90
44773;DHT22;30492;52.088;5.122;2022-08-19T07:45:21;20.10;99.90
44773;DHT22;30492;52.088;5.122;2022-08-19T07:49:02;20.20;99.90
44773;DHT22;30492;52.088;5.122;2022-08-19T07:52:45;20.20;99.90
44773;DHT22;30492;52.088;5.122;2022-08-19T07:56:24;20.20;99.90
44773;DHT22;30492;52.088;5.122;2022-08-19T08:00:05;20.30;99.90
44773;DHT22;30492;52.088;5.122;2022-08-19T08:03:47;20.40;99.90
44773;DHT22;30492;52.088;5.122;2022-08-19T08:07:45;20.50;99.90
44773;DHT22;30492;52.088;5.122;2022-08-19T08:11:42;20.50;99.90
44773;DHT22;30492;52.088;5.122;2022-08-19T08:15:21;20.50;99.90
44773;DHT22;30492;52.088;5.122;2022-08-19T08:19:00;20.60;99.90
44773;DHT22;30492;52.088;5.122;2022-08-19T08:22:45;20.60;99.90
44773;DHT22;30492;52.088;5.122;2022-08-19T08:26:42;20.70;99.90
44773;DHT22;30492;52.088;5.122;2022-08-19T08:30:24;20.70;99.90
44773;DHT22;30492;52.088;5.122;2022-08-19T08:34:07;20.80;99.90
44773;DHT22;30492;52.088;5.122;2022-08-19T08:37:48;20.80;99.90
44773;DHT22;30492;52.088;5.122;2022-08-19T08:41:34;20.90;99.90
44773;DHT22;30492;52.088;5.122;2022-08-19T08:45:17;21.10;99.90
44773;DHT22;30492;52.088;5.122;2022-08-19T08:49:02;21.30;99.90
44773;DHT22;30492;52.088;5.122;2022-08-19T08:52:46;21.50;99.90
44773;DHT22;30492;52.088;5.122;2022-08-19T08:56:29;21.60;99.90
44773;DHT22;30492;52.088;5.122;2022-08-19T09:00:18;21.70;99.90
44773;DHT22;30492;52.088;5.122;2022-08-19T09:03:56;21.70;99.90
44773;DHT22;30492;52.088;5.122;2022-08-19T09:07:44;21.80;99.90
44773;DHT22;30492;52.088;5.122;2022-08-19T09:11:36;21.80;99.90
44773;DHT22;30492;52.088;5.122;2022-08-19T09:15:29;21.90;99.90
44773;DHT22;30492;52.088;5.122;2022-08-19T09:19:10;22.10;99.90
44773;DHT22;30492;52.088;5.122;2022-08-19T09:22:50;22.20;99.90
44773;DHT22;30492;52.088;5.122;2022-08-19T09:26:30;21.90;99.90
44773;DHT22;30492;52.088;5.122;2022-08-19T09:30:15;21.90;99.90
44773;DHT22;30492;52.088;5.122;2022-08-19T09:33:55;21.80;99.90
44773;DHT22;30492;52.088;5.122;2022-08-19T09:37:36;21.80;99.90
44773;DHT22;30492;52.088;5.122;2022-08-19T09:41:16;22.00;99.90
44773;DHT22;30492;52.088;5.122;2022-08-19T09:44:55;22.10;99.90
44773;DHT22;30492;52.088;5.122;2022-08-19T09:48:37;22.10;99.90
44773;DHT22;30492;52.088;5.122;2022-08-19T09:52:18;22.10;99.90
44773;DHT22;30492;52.088;5.122;2022-08-19T09:55:56;22.30;99.90
44773;DHT22;30492;52.088;5.122;2022-08-19T09:59:34;22.40;99.90
44773;DHT22;30492;52.088;5.122;2022-08-19T10:03:13;22.40;99.90
44773;DHT22;30492;52.088;5.122;2022-08-19T10:06:56;22.50;99.90
44773;DHT22;30492;52.088;5.122;2022-08-19T10:10:35;22.60;99.90
44773;DHT22;30492;52.088;5.122;2022-08-19T10:14:13;22.60;99.90
44773;DHT22;30492;52.088;5.122;2022-08-19T10:17:52;22.80;99.90
44773;DHT22;30492;52.088;5.122;2022-08-19T10:21:33;23.10;99.90
44773;DHT22;30492;52.088;5.122;2022-08-19T10:25:13;23.30;99.90
44773;DHT22;30492;52.088;5.122;2022-08-19T10:28:52;23.60;99.90
44773;DHT22;30492;52.088;5.122;2022-08-19T10:32:31;23.90;99.90
44773;DHT22;30492;52.088;5.122;2022-08-19T10:36:13;24.00;99.90
44773;DHT22;30492;52.088;5.122;2022-08-19T10:39:53;24.10;99.90
44773;DHT22;30492;52.088;5.122;2022-08-19T10:43:34;24.00;99.90
44773;DHT22;30492;52.088;5.122;2022-08-19T10:47:12;24.10;99.90
44773;DHT22;30492;52.088;5.122;2022-08-19T10:50:51;24.10;99.90
44773;DHT22;30492;52.088;5.122;2022-08-19T10:54:48;24.10;99.90
44773;DHT22;30492;52.088;5.122;2022-08-19T10:58:46;24.30;99.90
44773;DHT22;30492;52.088;5.122;2022-08-19T11:02:26;24.40;99.90
44773;DHT22;30492;52.088;5.122;2022-08-19T11:06:07;24.40;99.90
44773;DHT22;30492;52.088;5.122;2022-08-19T11:09:47;24.30;99.90
44773;DHT22;30492;52.088;5.122;2022-08-19T11:13:27;24.30;99.90
44773;DHT22;30492;52.088;5.122;2022-08-19T11:17:07;24.20;99.90
44773;DHT22;30492;52.088;5.122;2022-08-19T11:20:46;24.20;99.90
44773;DHT22;30492;52.088;5.122;2022-08-19T11:24:25;24.00;99.90
44773;DHT22;30492;52.088;5.122;2022-08-19T11:28:04;23.90;99.90
44773;DHT22;30492;52.088;5.122;2022-08-19T11:31:46;23.70;99.90
44773;DHT22;30492;52.088;5.122;2022-08-19T11:35:26;23.70;99.90
44773;DHT22;30492;52.088;5.122;2022-08-19T11:39:05;23.60;99.90
44773;DHT22;30492;52.088;5.122;2022-08-19T11:42:44;23.50;99.90
44773;DHT22;30492;52.088;5.122;2022-08-19T11:46:27;23.40;99.90
44773;DHT22;30492;52.088;5.122;2022-08-19T11:50:06;23.20;99.90
44773;DHT22;30492;52.088;5.122;2022-08-19T11:53:47;23.30;99.90
44773;DHT22;30492;52.088;5.122;2022-08-19T11:57:27;23.50;99.90
44773;DHT22;30492;52.088;5.122;2022-08-19T12:01:07;23.60;99.90
44773;DHT22;30492;52.088;5.122;2022-08-19T12:04:47;23.70;99.90
44773;DHT22;30492;52.088;5.122;2022-08-19T12:08:26;23.80;99.90
44773;DHT22;30492;52.088;5.122;2022-08-19T12:12:06;23.80;99.90
44773;DHT22;30492;52.088;5.122;2022-08-19T12:15:46;23.90;99.90
44773;DHT22;30492;52.088;5.122;2022-08-19T12:19:25;23.90;99.90
44773;DHT22;30492;52.088;5.122;2022-08-19T12:23:05;24.10;99.90
44773;DHT22;30492;52.088;5.122;2022-08-19T12:26:48;24.20;99.90
44773;DHT22;30492;52.088;5.122;2022-08-19T12:30:30;24.30;99.90
44773;DHT22;30492;52.088;5.122;2022-08-19T12:34:10;24.40;99.90
44773;DHT22;30492;52.088;5.122;2022-08-19T12:37:51;24.50;99.90
44773;DHT22;30492;52.088;5.122;2022-08-19T12:41:30;24.40;99.90
44773;DHT22;30492;52.088;5.122;2022-08-19T12:45:09;24.50;99.90
44773;DHT22;30492;52.088;5.122;2022-08-19T12:48:50;24.50;99.90
44773;DHT22;30492;52.088;5.122;2022-08-19T12:52:29;24.50;99.90
44773;DHT22;30492;52.088;5.122;2022-08-19T12:56:09;24.50;99.90
44773;DHT22;30492;52.088;5.122;2022-08-19T12:59:52;24.70;99.90
44773;DHT22;30492;52.088;5.122;2022-08-19T13:03:31;24.40;99.90
44773;DHT22;30492;52.088;5.122;2022-08-19T13:06:50;24.50;99.90
44773;DHT22;30492;52.088;5.122;2022-08-19T13:10:32;24.60;99.90
44773;DHT22;30492;52.088;5.122;2022-08-19T13:14:11;24.70;99.90
44773;DHT22;30492;52.088;5.122;2022-08-19T13:17:51;24.60;99.90
44773;DHT22;30492;52.088;5.122;2022-08-19T13:21:31;24.70;99.90
44773;DHT22;30492;52.088;5.122;2022-08-19T13:25:12;24.80;99.90
44773;DHT22;30492;52.088;5.122;2022-08-19T13:28:52;24.90;99.90
44773;DHT22;30492;52.088;5.122;2022-08-19T13:32:48;24.80;99.90
44773;DHT22;30492;52.088;5.122;2022-08-19T13:36:46;24.80;99.90
44773;DHT22;30492;52.088;5.122;2022-08-19T13:40:26;24.70;99.90
44773;DHT22;30492;52.088;5.122;2022-08-19T13:44:06;24.70;99.90
44773;DHT22;30492;52.088;5.122;2022-08-19T13:47:45;24.50;99.90
44773;DHT22;30492;52.088;5.122;2022-08-19T13:51:24;24.20;99.90
44773;DHT22;30492;52.088;5.122;2022-08-19T13:55:02;24.10;99.90
44773;DHT22;30492;52.088;5.122;2022-08-19T13:58:43;23.90;99.90
44773;DHT22;30492;52.088;5.122;2022-08-19T14:02:15;23.80;99.90
44773;DHT22;30492;52.088;5.122;2022-08-19T14:05:54;23.50;99.90
44773;DHT22;30492;52.088;5.122;2022-08-19T14:09:12;23.30;99.90
44773;DHT22;30492;52.088;5.122;2022-08-19T14:12:54;23.10;99.90
44773;DHT22;30492;52.088;5.122;2022-08-19T14:16:34;22.90;99.90
44773;DHT22;30492;52.088;5.122;2022-08-19T14:20:14;23.00;99.90
44773;DHT22;30492;52.088;5.122;2022-08-19T14:23:52;22.90;99.90
44773;DHT22;30492;52.088;5.122;2022-08-19T14:27:32;22.70;99.90
44773;DHT22;30492;52.088;5.122;2022-08-19T14:31:12;22.80;99.90
44773;DHT22;30492;52.088;5.122;2022-08-19T14:34:51;22.80;99.90
44773;DHT22;30492;52.088;5.122;2022-08-19T14:38:29;22.90;99.90
44773;DHT22;30492;52.088;5.122;2022-08-19T14:42:07;23.00;99.90
44773;DHT22;30492;52.088;5.122;2022-08-19T14:45:46;23.00;99.90
44773;DHT22;30492;52.088;5.122;2022-08-19T14:49:25;23.00;99.90
44773;DHT22;30492;52.088;5.122;2022-08-19T14:53:07;23.00;99.90
44773;DHT22;30492;52.088;5.122;2022-08-19T14:56:46;22.90;99.90
44773;DHT22;30492;52.088;5.122;2022-08-19T15:00:26;23.10;99.90
44773;DHT22;30492;52.088;5.122;2022-08-19T15:04:04;23.20;99.90
44773;DHT22;30492;52.088;5.122;2022-08-19T15:07:44;23.10;99.90
44773;DHT22;30492;52.088;5.122;2022-08-19T15:11:25;23.00;99.90
44773;DHT22;30492;52.088;5.122;2022-08-19T15:15:06;23.00;99.90
44773;DHT22;30492;52.088;5.122;2022-08-19T15:18:50;23.00;99.90
44773;DHT22;30492;52.088;5.122;2022-08-19T15:22:29;23.20;99.90
44773;DHT22;30492;52.088;5.122;2022-08-19T15:26:08;23.30;99.90
44773;DHT22;30492;52.088;5.122;2022-08-19T15:29:47;23.40;99.90
44773;DHT22;30492;52.088;5.122;2022-08-19T15:33:27;23.40;99.90
44773;DHT22;30492;52.088;5.122;2022-08-19T15:37:06;23.50;99.90
44773;DHT22;30492;52.088;5.122;2022-08-19T15:40:47;23.60;99.90
44773;DHT22;30492;52.088;5.122;2022-08-19T15:44:47;23.80;99.90
44773;DHT22;30492;52.088;5.122;2022-08-19T15:48:26;23.70;99.90
44773;DHT22;30492;52.088;5.122;2022-08-19T15:52:05;23.70;99.90
44773;DHT22;30492;52.088;5.122;2022-08-19T15:55:45;23.70;99.90
44773;DHT22;30492;52.088;5.122;2022-08-19T15:59:23;23.90;99.90
44773;DHT22;30492;52.088;5.122;2022-08-19T16:03:20;23.90;99.90
44773;DHT22;30492;52.088;5.122;2022-08-19T16:07:16;23.80;99.90
44773;DHT22;30492;52.088;5.122;2022-08-19T16:10:55;23.80;99.90
44773;DHT22;30492;52.088;5.122;2022-08-19T16:14:35;23.80;99.90
44773;DHT22;30492;52.088;5.122;2022-08-19T16:18:14;23.90;99.90
44773;DHT22;30492;52.088;5.122;2022-08-19T16:21:55;23.90;99.90
44773;DHT22;30492;52.088;5.122;2022-08-19T16:25:13;23.90;99.90
44773;DHT22;30492;52.088;5.122;2022-08-19T16:28:57;23.90;99.90
44773;DHT22;30492;52.088;5.122;2022-08-19T16:32:41;24.00;99.90
44773;DHT22;30492;52.088;5.122;2022-08-19T16:36:20;23.90;99.90
44773;DHT22;30492;52.088;5.122;2022-08-19T16:40:02;23.90;99.90
44773;DHT22;30492;52.088;5.122;2022-08-19T16:43:41;24.00;99.90
44773;DHT22;30492;52.088;5.122;2022-08-19T16:47:24;23.90;99.90
44773;DHT22;30492;52.088;5.122;2022-08-19T16:51:02;23.90;99.90
44773;DHT22;30492;52.088;5.122;2022-08-19T16:54:41;23.90;99.90
44773;DHT22;30492;52.088;5.122;2022-08-19T16:58:22;23.90;99.90
44773;DHT22;30492;52.088;5.122;2022-08-19T17:02:01;23.90;99.90
44773;DHT22;30492;52.088;5.122;2022-08-19T17:05:41;23.80;99.90
44773;DHT22;30492;52.088;5.122;2022-08-19T17:09:20;23.90;99.90
44773;DHT22;30492;52.088;5.122;2022-08-19T17:12:58;23.90;99.90
44773;DHT22;30492;52.088;5.122;2022-08-19T17:16:38;23.80;99.90
44773;DHT22;30492;52.088;5.122;2022-08-19T17:20:18;23.80;99.90
44773;DHT22;30492;52.088;5.122;2022-08-19T17:23:58;23.80;99.90
44773;DHT22;30492;52.088;5.122;2022-08-19T17:27:38;23.80;99.90
44773;DHT22;30492;52.088;5.122;2022-08-19T17:31:18;23.80;99.90
44773;DHT22;30492;52.088;5.122;2022-08-19T17:34:58;23.80;99.90
44773;DHT22;30492;52.088;5.122;2022-08-19T17:38:39;23.70;99.90
44773;DHT22;30492;52.088;5.122;2022-08-19T17:42:19;23.70;99.90
44773;DHT22;30492;52.088;5.122;2022-08-19T17:45:57;23.60;99.90
44773;DHT22;30492;52.088;5.122;2022-08-19T17:49:36;23.60;99.90
44773;DHT22;30492;52.088;5.122;2022-08-19T17:53:15;23.40;99.90
44773;DHT22;30492;52.088;5.122;2022-08-19T17:56:53;23.50;99.90
44773;DHT22;30492;52.088;5.122;2022-08-19T18:00:32;23.50;99.90
44773;DHT22;30492;52.088;5.122;2022-08-19T18:04:11;23.60;99.90
44773;DHT22;30492;52.088;5.122;2022-08-19T18:07:50;23.60;99.90
44773;DHT22;30492;52.088;5.122;2022-08-19T18:11:30;23.60;99.90
44773;DHT22;30492;52.088;5.122;2022-08-19T18:15:10;23.60;99.90
44773;DHT22;30492;52.088;5.122;2022-08-19T18:18:49;23.60;99.90
44773;DHT22;30492;52.088;5.122;2022-08-19T18:22:30;23.50;99.90
44773;DHT22;30492;52.088;5.122;2022-08-19T18:26:10;23.40;99.90
44773;DHT22;30492;52.088;5.122;2022-08-19T18:29:51;23.40;99.90
44773;DHT22;30492;52.088;5.122;2022-08-19T18:33:30;23.40;99.90
44773;DHT22;30492;52.088;5.122;2022-08-19T18:37:28;23.40;99.90
44773;DHT22;30492;52.088;5.122;2022-08-19T18:41:08;23.40;99.90
44773;DHT22;30492;52.088;5.122;2022-08-19T18:45:06;23.30;99.90
44773;DHT22;30492;52.088;5.122;2022-08-19T18:49:03;23.20;99.90
44773;DHT22;30492;52.088;5.122;2022-08-19T18:52:41;23.30;99.90
44773;DHT22;30492;52.088;5.122;2022-08-19T18:56:19;23.10;99.90
44773;DHT22;30492;52.088;5.122;2022-08-19T19:00:03;23.10;99.90
44773;DHT22;30492;52.088;5.122;2022-08-19T19:03:45;23.10;99.90
44773;DHT22;30492;52.088;5.122;2022-08-19T19:07:25;23.00;99.90
44773;DHT22;30492;52.088;5.122;2022-08-19T19:10:45;22.90;99.90
44773;DHT22;30492;52.088;5.122;2022-08-19T19:14:27;23.00;99.90
44773;DHT22;30492;52.088;5.122;2022-08-19T19:18:06;22.90;99.90
44773;DHT22;30492;52.088;5.122;2022-08-19T19:21:47;22.90;99.90
44773;DHT22;30492;52.088;5.122;2022-08-19T19:25:27;23.00;99.90
44773;DHT22;30492;52.088;5.122;2022-08-19T19:29:10;23.00;99.90
44773;DHT22;30492;52.088;5.122;2022-08-19T19:32:49;22.90;99.90
44773;DHT22;30492;52.088;5.122;2022-08-19T19:36:29;22.90;99.90
44773;DHT22;30492;52.088;5.122;2022-08-19T19:40:10;22.80;99.90
44773;DHT22;30492;52.088;5.122;2022-08-19T19:43:53;22.80;99.90
44773;DHT22;30492;52.088;5.122;2022-08-19T19:48:02;22.80;99.90
44773;DHT22;30492;52.088;5.122;2022-08-19T19:51:21;22.80;99.90
44773;DHT22;30492;52.088;5.122;2022-08-19T19:55:00;22.80;99.90
44773;DHT22;30492;52.088;5.122;2022-08-19T19:58:41;22.70;99.90
44773;DHT22;30492;52.088;5.122;2022-08-19T20:02:20;22.60;99.90
44773;DHT22;30492;52.088;5.122;2022-08-19T20:05:59;22.60;99.90
44773;DHT22;30492;52.088;5.122;2022-08-19T20:09:37;22.60;99.90
44773;DHT22;30492;52.088;5.122;2022-08-19T20:13:16;22.60;99.90
44773;DHT22;30492;52.088;5.122;2022-08-19T20:16:58;22.60;99.90
44773;DHT22;30492;52.088;5.122;2022-08-19T20:20:17;22.50;99.90
44773;DHT22;30492;52.088;5.122;2022-08-19T20:23:57;22.50;99.90
44773;DHT22;30492;52.088;5.122;2022-08-19T20:27:35;22.50;99.90
44773;DHT22;30492;52.088;5.122;2022-08-19T20:31:14;22.50;99.90
44773;DHT22;30492;52.088;5.122;2022-08-19T20:34:57;22.50;99.90
44773;DHT22;30492;52.088;5.122;2022-08-19T20:38:35;22.40;99.90
44773;DHT22;30492;52.088;5.122;2022-08-19T20:42:14;22.30;99.90
44773;DHT22;30492;52.088;5.122;2022-08-19T20:45:54;22.40;99.90
44773;DHT22;30492;52.088;5.122;2022-08-19T20:49:33;22.40;99.90
44773;DHT22;30492;52.088;5.122;2022-08-19T20:53:15;22.30;99.90
44773;DHT22;30492;52.088;5.122;2022-08-19T20:56:54;22.30;99.90
44773;DHT22;30492;52.088;5.122;2022-08-19T21:00:33;22.30;99.90
44773;DHT22;30492;52.088;5.122;2022-08-19T21:04:15;22.30;99.90
44773;DHT22;30492;52.088;5.122;2022-08-19T21:07:53;22.30;99.90
44773;DHT22;30492;52.088;5.122;2022-08-19T21:11:36;22.20;99.90
44773;DHT22;30492;52.088;5.122;2022-08-19T21:15:14;22.20;99.90
44773;DHT22;30492;52.088;5.122;2022-08-19T21:18:54;22.20;99.90
44773;DHT22;30492;52.088;5.122;2022-08-19T21:22:33;22.20;99.90
44773;DHT22;30492;52.088;5.122;2022-08-19T21:26:12;22.20;99.90
44773;DHT22;30492;52.088;5.122;2022-08-19T21:29:53;22.20;99.90
44773;DHT22;30492;52.088;5.122;2022-08-19T21:33:31;22.30;99.90
44773;DHT22;30492;52.088;5.122;2022-08-19T21:37:09;22.30;99.90
44773;DHT22;30492;52.088;5.122;2022-08-19T21:40:49;22.30;99.90
44773;DHT22;30492;52.088;5.122;2022-08-19T21:44:29;22.20;99.90
44773;DHT22;30492;52.088;5.122;2022-08-19T21:48:12;22.20;99.90
44773;DHT22;30492;52.088;5.122;2022-08-19T21:51:31;22.30;99.90
44773;DHT22;30492;52.088;5.122;2022-08-19T21:55:11;22.10;99.90
44773;DHT22;30492;52.088;5.122;2022-08-19T21:58:49;22.10;99.90
44773;DHT22;30492;52.088;5.122;2022-08-19T22:02:27;22.10;99.90
44773;DHT22;30492;52.088;5.122;2022-08-19T22:06:07;22.10;99.90
44773;DHT22;30492;52.088;5.122;2022-08-19T22:09:48;22.10;99.90
44773;DHT22;30492;52.088;5.122;2022-08-19T22:13:30;22.10;99.90
44773;DHT22;30492;52.088;5.122;2022-08-19T22:17:11;22.20;99.90
44773;DHT22;30492;52.088;5.122;2022-08-19T22:20:52;22.20;99.90
44773;DHT22;30492;52.088;5.122;2022-08-19T22:24:32;22.10;99.90
44773;DHT22;30492;52.088;5.122;2022-08-19T22:28:16;22.10;99.90
44773;DHT22;30492;52.088;5.122;2022-08-19T22:31:54;22.10;99.90
44773;DHT22;30492;52.088;5.122;2022-08-19T22:35:37;22.10;99.90
44773;DHT22;30492;52.088;5.122;2022-08-19T22:39:16;22.10;99.90
44773;DHT22;30492;52.088;5.122;2022-08-19T22:42:57;22.10;99.90
44773;DHT22;30492;52.088;5.122;2022-08-19T22:46:41;22.10;99.90
44773;DHT22;30492;52.088;5.122;2022-08-19T22:50:22;22.10;99.90
44773;DHT22;30492;52.088;5.122;2022-08-19T22:54:02;22.10;99.90
44773;DHT22;30492;52.088;5.122;2022-08-19T22:57:40;22.10;99.90
44773;DHT22;30492;52.088;5.122;2022-08-19T23:01:21;22.10;99.90
44773;DHT22;30492;52.088;5.122;2022-08-19T23:05:01;22.10;99.90
44773;DHT22;30492;52.088;5.122;2022-08-19T23:08:43;22.10;99.90